Justin Paul Eckstein — WDB9186 — position and weather

sailwx.info

Track history (hours):
 
Tides and Currents Weather Stations Pressure Air Temp Water Temp Dewpoint Dewpoint Depression Visibility Wind Speed Wind Dir Waves Ship Positions

Justin Paul Eckstein

Owner: Marquette Transportation, Paducah, KY. More information available from US FCC via Universal Licensing System and Coast Guard Vessel Documentation Center.

Last reported at 2014-Oct-20 12:18 UTC. Time now 2014-Oct-23 11:51 UTC.
Position N 30°19' W 091°09'.

Length 61 m; draft 2.9 m.

Type: Tow > 200 m length. MMSI: 366971510.

Date/timePositionNaut miles runAvg speedWind from/ knotsBaromVisibWave heightAir tempDewpointWater temp
2014-Oct-20 12:18N 30°19' W 091°09'4 5.4
2014-Oct-20 11:33N 30°18' W 091°14'7 5.1
2014-Oct-20 10:13N 30°16' W 091°07'4 5.7
2014-Oct-20 09:33N 30°13' W 091°10'4 3.7
2014-Oct-20 08:32N 30°13' W 091°05'6 6.0
2014-Oct-20 07:33N 30°09' W 090°60'3 2.3
2014-Oct-20 06:21N 30°06' W 090°58'26 1.2
2014-Oct-19 08:32N 30°02' W 090°28'5 0.3
2014-Oct-18 13:32N 29°59' W 090°24'27 1.1
2014-Oct-17 12:32N 30°05' W 090°55'0 0.0
2014-Oct-17 11:33N 30°05' W 090°55'0 0.0
2014-Oct-17 10:33N 30°05' W 090°55'0 0.0
2014-Oct-17 09:24N 30°05' W 090°55'0 0.0
2014-Oct-17 08:32N 30°05' W 090°55'0 0.0
2014-Oct-17 07:33N 30°05' W 090°55'0 0.0
2014-Oct-17 06:33N 30°05' W 090°55'0 0.0
2014-Oct-17 05:23N 30°05' W 090°55'0 0.0
2014-Oct-17 04:33N 30°05' W 090°55'0 0.0
2014-Oct-17 03:32N 30°05' W 090°55'3 2.7
2014-Oct-17 02:30N 30°07' W 090°55'  
Track history (hours):
 
Tides and Currents Weather Stations Pressure Air Temp Water Temp Dewpoint Dewpoint Depression Visibility Wind Speed Wind Dir Waves Ship Positions

Justin Paul Eckstein

Owner: Marquette Transportation, Paducah, KY. More information available from US FCC via Universal Licensing System and Coast Guard Vessel Documentation Center.

Last reported at 2014-Oct-20 12:18 UTC. Time now 2014-Oct-23 11:51 UTC.
Position N 30°19' W 091°09'.

Length 61 m; draft 2.9 m.

Type: Tow > 200 m length. MMSI: 366971510.

Date/timePositionNaut miles runAvg speedWind from/ knotsBaromVisibWave heightAir tempDewpointWater temp
2014-Oct-20 12:18N 30°19' W 091°09'4 5.4
2014-Oct-20 11:33N 30°18' W 091°14'7 5.1
2014-Oct-20 10:13N 30°16' W 091°07'4 5.7
2014-Oct-20 09:33N 30°13' W 091°10'4 3.7
2014-Oct-20 08:32N 30°13' W 091°05'6 6.0
2014-Oct-20 07:33N 30°09' W 090°60'3 2.3
2014-Oct-20 06:21N 30°06' W 090°58'26 1.2
2014-Oct-19 08:32N 30°02' W 090°28'5 0.3
2014-Oct-18 13:32N 29°59' W 090°24'27 1.1
2014-Oct-17 12:32N 30°05' W 090°55'0 0.0
2014-Oct-17 11:33N 30°05' W 090°55'0 0.0
2014-Oct-17 10:33N 30°05' W 090°55'0 0.0
2014-Oct-17 09:24N 30°05' W 090°55'0 0.0
2014-Oct-17 08:32N 30°05' W 090°55'0 0.0
2014-Oct-17 07:33N 30°05' W 090°55'0 0.0
2014-Oct-17 06:33N 30°05' W 090°55'0 0.0
2014-Oct-17 05:23N 30°05' W 090°55'0 0.0
2014-Oct-17 04:33N 30°05' W 090°55'0 0.0
2014-Oct-17 03:32N 30°05' W 090°55'3 2.7
2014-Oct-17 02:30N 30°07' W 090°55'  

Dump ship's entire track history